sensor_id;sensor_type;location;lat;lon;timestamp;P1;durP1;ratioP1;P2;durP2;ratioP2
846;SDS011;410;48.954;9.474;2023-05-16T00:00:22;168.60;;;34.37;;
846;SDS011;410;48.954;9.474;2023-05-16T00:02:27;143.17;;;29.27;;
846;SDS011;410;48.954;9.474;2023-05-16T00:04:31;181.70;;;34.13;;
846;SDS011;410;48.954;9.474;2023-05-16T00:06:34;146.30;;;29.47;;
846;SDS011;410;48.954;9.474;2023-05-16T00:08:37;150.37;;;38.67;;
846;SDS011;410;48.954;9.474;2023-05-16T00:10:41;157.87;;;35.07;;
846;SDS011;410;48.954;9.474;2023-05-16T00:12:44;131.57;;;34.53;;
846;SDS011;410;48.954;9.474;2023-05-16T00:14:52;173.87;;;30.00;;
846;SDS011;410;48.954;9.474;2023-05-16T00:16:56;154.13;;;34.47;;
846;SDS011;410;48.954;9.474;2023-05-16T00:19:01;160.40;;;34.43;;
846;SDS011;410;48.954;9.474;2023-05-16T00:21:05;161.67;;;36.87;;
846;SDS011;410;48.954;9.474;2023-05-16T00:23:08;179.57;;;34.03;;
846;SDS011;410;48.954;9.474;2023-05-16T00:25:11;158.90;;;34.47;;
846;SDS011;410;48.954;9.474;2023-05-16T00:27:14;156.53;;;39.03;;
846;SDS011;410;48.954;9.474;2023-05-16T00:29:17;132.10;;;33.40;;
846;SDS011;410;48.954;9.474;2023-05-16T00:31:20;147.30;;;37.23;;
846;SDS011;410;48.954;9.474;2023-05-16T00:33:25;153.90;;;35.57;;
846;SDS011;410;48.954;9.474;2023-05-16T00:35:29;175.53;;;39.53;;
846;SDS011;410;48.954;9.474;2023-05-16T00:37:32;170.13;;;34.57;;
846;SDS011;410;48.954;9.474;2023-05-16T00:39:35;130.70;;;35.70;;
846;SDS011;410;48.954;9.474;2023-05-16T00:41:38;158.20;;;35.03;;
846;SDS011;410;48.954;9.474;2023-05-16T00:43:42;190.90;;;35.70;;
846;SDS011;410;48.954;9.474;2023-05-16T00:45:45;180.80;;;37.50;;
846;SDS011;410;48.954;9.474;2023-05-16T00:47:48;154.90;;;36.07;;
846;SDS011;410;48.954;9.474;2023-05-16T00:49:52;170.43;;;41.07;;
846;SDS011;410;48.954;9.474;2023-05-16T00:51:57;129.17;;;32.77;;
846;SDS011;410;48.954;9.474;2023-05-16T00:54:00;163.23;;;35.93;;
846;SDS011;410;48.954;9.474;2023-05-16T00:56:04;164.37;;;34.67;;
846;SDS011;410;48.954;9.474;2023-05-16T00:58:07;179.97;;;37.10;;
846;SDS011;410;48.954;9.474;2023-05-16T01:00:11;199.30;;;39.47;;
846;SDS011;410;48.954;9.474;2023-05-16T01:02:16;221.00;;;36.57;;
846;SDS011;410;48.954;9.474;2023-05-16T01:04:20;170.27;;;37.83;;
846;SDS011;410;48.954;9.474;2023-05-16T01:06:24;203.87;;;41.53;;
846;SDS011;410;48.954;9.474;2023-05-16T01:08:28;221.63;;;40.57;;
846;SDS011;410;48.954;9.474;2023-05-16T01:10:37;162.10;;;37.43;;
846;SDS011;410;48.954;9.474;2023-05-16T01:12:47;182.63;;;40.77;;
846;SDS011;410;48.954;9.474;2023-05-16T01:14:59;187.63;;;42.27;;
846;SDS011;410;48.954;9.474;2023-05-16T01:17:07;238.53;;;43.40;;
846;SDS011;410;48.954;9.474;2023-05-16T01:19:22;178.93;;;42.47;;
846;SDS011;410;48.954;9.474;2023-05-16T01:21:37;175.10;;;40.17;;
846;SDS011;410;48.954;9.474;2023-05-16T01:23:50;178.80;;;41.50;;
846;SDS011;410;48.954;9.474;2023-05-16T01:25:55;236.93;;;42.60;;
846;SDS011;410;48.954;9.474;2023-05-16T01:28:01;216.80;;;39.63;;
846;SDS011;410;48.954;9.474;2023-05-16T01:30:12;152.77;;;34.00;;
846;SDS011;410;48.954;9.474;2023-05-16T01:32:17;206.47;;;43.23;;
846;SDS011;410;48.954;9.474;2023-05-16T01:34:21;202.47;;;41.77;;
846;SDS011;410;48.954;9.474;2023-05-16T01:36:24;204.97;;;39.37;;
846;SDS011;410;48.954;9.474;2023-05-16T01:38:29;175.80;;;39.67;;
846;SDS011;410;48.954;9.474;2023-05-16T01:40:35;197.77;;;39.60;;
846;SDS011;410;48.954;9.474;2023-05-16T01:42:42;183.37;;;42.40;;
846;SDS011;410;48.954;9.474;2023-05-16T01:44:49;238.77;;;39.10;;
846;SDS011;410;48.954;9.474;2023-05-16T01:46:58;173.53;;;40.30;;
846;SDS011;410;48.954;9.474;2023-05-16T01:49:04;225.03;;;38.40;;
846;SDS011;410;48.954;9.474;2023-05-16T01:51:17;217.37;;;45.43;;
846;SDS011;410;48.954;9.474;2023-05-16T01:53:24;190.37;;;42.67;;
846;SDS011;410;48.954;9.474;2023-05-16T01:55:32;195.10;;;42.80;;
846;SDS011;410;48.954;9.474;2023-05-16T01:57:39;258.43;;;45.23;;
846;SDS011;410;48.954;9.474;2023-05-16T01:59:43;172.77;;;42.17;;
846;SDS011;410;48.954;9.474;2023-05-16T02:01:48;209.40;;;41.60;;
846;SDS011;410;48.954;9.474;2023-05-16T02:03:51;225.63;;;41.80;;
846;SDS011;410;48.954;9.474;2023-05-16T02:05:54;202.80;;;49.00;;
846;SDS011;410;48.954;9.474;2023-05-16T02:07:58;238.20;;;39.17;;
846;SDS011;410;48.954;9.474;2023-05-16T02:10:01;194.77;;;39.70;;
846;SDS011;410;48.954;9.474;2023-05-16T02:12:08;195.93;;;39.33;;
846;SDS011;410;48.954;9.474;2023-05-16T02:14:12;248.70;;;48.93;;
846;SDS011;410;48.954;9.474;2023-05-16T02:16:15;249.97;;;40.43;;
846;SDS011;410;48.954;9.474;2023-05-16T02:18:19;178.53;;;42.43;;
846;SDS011;410;48.954;9.474;2023-05-16T02:20:24;254.07;;;51.43;;
846;SDS011;410;48.954;9.474;2023-05-16T02:22:27;205.10;;;46.30;;
846;SDS011;410;48.954;9.474;2023-05-16T02:24:31;218.70;;;43.27;;
846;SDS011;410;48.954;9.474;2023-05-16T02:26:34;234.97;;;47.20;;
846;SDS011;410;48.954;9.474;2023-05-16T02:28:38;266.67;;;50.30;;
846;SDS011;410;48.954;9.474;2023-05-16T02:30:41;207.90;;;46.67;;
846;SDS011;410;48.954;9.474;2023-05-16T02:32:44;255.00;;;41.13;;
846;SDS011;410;48.954;9.474;2023-05-16T02:34:52;198.30;;;46.60;;
846;SDS011;410;48.954;9.474;2023-05-16T02:36:55;265.43;;;54.60;;
846;SDS011;410;48.954;9.474;2023-05-16T02:38:58;262.37;;;52.70;;
846;SDS011;410;48.954;9.474;2023-05-16T02:41:01;192.57;;;46.97;;
846;SDS011;410;48.954;9.474;2023-05-16T02:43:04;189.80;;;47.27;;
846;SDS011;410;48.954;9.474;2023-05-16T02:45:07;271.30;;;52.80;;
846;SDS011;410;48.954;9.474;2023-05-16T02:47:11;303.60;;;58.67;;
846;SDS011;410;48.954;9.474;2023-05-16T02:49:14;266.50;;;52.60;;
846;SDS011;410;48.954;9.474;2023-05-16T02:51:20;282.33;;;47.57;;
846;SDS011;410;48.954;9.474;2023-05-16T02:53:25;240.40;;;52.97;;
846;SDS011;410;48.954;9.474;2023-05-16T02:55:28;299.03;;;59.53;;
846;SDS011;410;48.954;9.474;2023-05-16T02:57:31;238.63;;;58.53;;
846;SDS011;410;48.954;9.474;2023-05-16T02:59:35;296.93;;;54.67;;
846;SDS011;410;48.954;9.474;2023-05-16T03:01:38;262.50;;;49.93;;
846;SDS011;410;48.954;9.474;2023-05-16T03:03:41;351.90;;;62.77;;
846;SDS011;410;48.954;9.474;2023-05-16T03:05:44;276.90;;;56.20;;
846;SDS011;410;48.954;9.474;2023-05-16T03:07:49;295.03;;;53.77;;
846;SDS011;410;48.954;9.474;2023-05-16T03:09:52;263.10;;;60.47;;
846;SDS011;410;48.954;9.474;2023-05-16T03:11:55;275.37;;;50.50;;
846;SDS011;410;48.954;9.474;2023-05-16T03:14:00;176.20;;;35.97;;
846;SDS011;410;48.954;9.474;2023-05-16T03:16:03;81.60;;;22.20;;
846;SDS011;410;48.954;9.474;2023-05-16T03:18:08;294.80;;;59.53;;
846;SDS011;410;48.954;9.474;2023-05-16T03:20:12;315.97;;;58.13;;
846;SDS011;410;48.954;9.474;2023-05-16T03:22:16;286.10;;;61.70;;
846;SDS011;410;48.954;9.474;2023-05-16T03:24:20;335.03;;;55.07;;
846;SDS011;410;48.954;9.474;2023-05-16T03:26:23;267.40;;;57.97;;
846;SDS011;410;48.954;9.474;2023-05-16T03:28:27;291.53;;;55.83;;
846;SDS011;410;48.954;9.474;2023-05-16T03:30:30;244.27;;;51.70;;
846;SDS011;410;48.954;9.474;2023-05-16T03:32:33;267.60;;;52.83;;
846;SDS011;410;48.954;9.474;2023-05-16T03:34:36;240.43;;;56.67;;
846;SDS011;410;48.954;9.474;2023-05-16T03:36:39;293.33;;;51.67;;
846;SDS011;410;48.954;9.474;2023-05-16T03:38:43;244.33;;;53.17;;
846;SDS011;410;48.954;9.474;2023-05-16T03:40:47;264.70;;;56.20;;
846;SDS011;410;48.954;9.474;2023-05-16T03:42:50;284.27;;;58.37;;
846;SDS011;410;48.954;9.474;2023-05-16T03:44:53;368.90;;;61.37;;
846;SDS011;410;48.954;9.474;2023-05-16T03:46:56;260.70;;;52.87;;
846;SDS011;410;48.954;9.474;2023-05-16T03:48:59;299.20;;;51.50;;
846;SDS011;410;48.954;9.474;2023-05-16T03:51:03;280.23;;;51.20;;
846;SDS011;410;48.954;9.474;2023-05-16T03:53:06;264.37;;;48.40;;
846;SDS011;410;48.954;9.474;2023-05-16T03:55:09;247.43;;;52.23;;
846;SDS011;410;48.954;9.474;2023-05-16T03:57:17;265.27;;;51.87;;
846;SDS011;410;48.954;9.474;2023-05-16T03:59:20;317.17;;;53.17;;
846;SDS011;410;48.954;9.474;2023-05-16T04:01:23;264.83;;;55.50;;
846;SDS011;410;48.954;9.474;2023-05-16T04:03:26;187.23;;;48.13;;
846;SDS011;410;48.954;9.474;2023-05-16T04:05:30;288.90;;;56.00;;
846;SDS011;410;48.954;9.474;2023-05-16T04:07:33;253.37;;;50.77;;
846;SDS011;410;48.954;9.474;2023-05-16T04:09:37;247.73;;;50.13;;
846;SDS011;410;48.954;9.474;2023-05-16T04:11:40;260.47;;;50.60;;
846;SDS011;410;48.954;9.474;2023-05-16T04:13:45;272.20;;;49.30;;
846;SDS011;410;48.954;9.474;2023-05-16T04:15:48;274.07;;;47.03;;
846;SDS011;410;48.954;9.474;2023-05-16T04:17:51;237.87;;;49.13;;
846;SDS011;410;48.954;9.474;2023-05-16T04:19:54;211.33;;;43.40;;
846;SDS011;410;48.954;9.474;2023-05-16T04:21:58;291.80;;;48.97;;
846;SDS011;410;48.954;9.474;2023-05-16T04:24:01;248.13;;;40.37;;
846;SDS011;410;48.954;9.474;2023-05-16T04:26:04;208.33;;;40.07;;
846;SDS011;410;48.954;9.474;2023-05-16T04:28:07;206.77;;;44.30;;
846;SDS011;410;48.954;9.474;2023-05-16T04:30:12;258.13;;;45.33;;
846;SDS011;410;48.954;9.474;2023-05-16T04:32:15;255.47;;;48.13;;
846;SDS011;410;48.954;9.474;2023-05-16T04:34:18;200.37;;;48.30;;
846;SDS011;410;48.954;9.474;2023-05-16T04:36:23;224.40;;;42.10;;
846;SDS011;410;48.954;9.474;2023-05-16T04:38:30;228.00;;;47.27;;
846;SDS011;410;48.954;9.474;2023-05-16T04:40:35;232.37;;;50.23;;
846;SDS011;410;48.954;9.474;2023-05-16T04:42:38;250.97;;;50.90;;
846;SDS011;410;48.954;9.474;2023-05-16T04:44:41;227.70;;;45.63;;
846;SDS011;410;48.954;9.474;2023-05-16T04:46:46;311.57;;;50.70;;
846;SDS011;410;48.954;9.474;2023-05-16T04:48:49;202.97;;;49.77;;
846;SDS011;410;48.954;9.474;2023-05-16T04:50:53;266.87;;;46.03;;
846;SDS011;410;48.954;9.474;2023-05-16T04:52:56;228.40;;;46.03;;
846;SDS011;410;48.954;9.474;2023-05-16T04:54:59;210.93;;;45.37;;
846;SDS011;410;48.954;9.474;2023-05-16T04:57:02;228.07;;;39.90;;
846;SDS011;410;48.954;9.474;2023-05-16T04:59:06;215.23;;;40.13;;
846;SDS011;410;48.954;9.474;2023-05-16T05:01:09;240.80;;;43.70;;
846;SDS011;410;48.954;9.474;2023-05-16T05:03:13;211.33;;;43.17;;
846;SDS011;410;48.954;9.474;2023-05-16T05:05:17;180.90;;;40.37;;
846;SDS011;410;48.954;9.474;2023-05-16T05:07:21;235.20;;;44.73;;
846;SDS011;410;48.954;9.474;2023-05-16T05:09:28;195.70;;;36.30;;
846;SDS011;410;48.954;9.474;2023-05-16T05:11:31;229.17;;;42.23;;
846;SDS011;410;48.954;9.474;2023-05-16T05:13:34;178.83;;;40.57;;
846;SDS011;410;48.954;9.474;2023-05-16T05:15:37;213.37;;;39.20;;
846;SDS011;410;48.954;9.474;2023-05-16T05:17:41;196.17;;;43.20;;
846;SDS011;410;48.954;9.474;2023-05-16T05:19:45;220.93;;;43.30;;
846;SDS011;410;48.954;9.474;2023-05-16T05:21:48;181.57;;;41.97;;
846;SDS011;410;48.954;9.474;2023-05-16T05:23:52;186.70;;;41.00;;
846;SDS011;410;48.954;9.474;2023-05-16T05:25:55;156.30;;;36.10;;
846;SDS011;410;48.954;9.474;2023-05-16T05:27:58;223.17;;;39.47;;
846;SDS011;410;48.954;9.474;2023-05-16T05:30:01;161.57;;;40.70;;
846;SDS011;410;48.954;9.474;2023-05-16T05:32:05;240.27;;;41.43;;
846;SDS011;410;48.954;9.474;2023-05-16T05:34:08;203.57;;;36.27;;
846;SDS011;410;48.954;9.474;2023-05-16T05:36:13;195.70;;;46.57;;
846;SDS011;410;48.954;9.474;2023-05-16T05:38:16;181.67;;;34.93;;
846;SDS011;410;48.954;9.474;2023-05-16T05:40:19;168.50;;;39.03;;
846;SDS011;410;48.954;9.474;2023-05-16T05:42:22;215.20;;;38.43;;
846;SDS011;410;48.954;9.474;2023-05-16T05:44:26;166.23;;;32.33;;
846;SDS011;410;48.954;9.474;2023-05-16T05:46:29;147.83;;;37.53;;
846;SDS011;410;48.954;9.474;2023-05-16T05:48:32;183.43;;;35.20;;
846;SDS011;410;48.954;9.474;2023-05-16T05:50:35;179.10;;;37.07;;
846;SDS011;410;48.954;9.474;2023-05-16T05:52:40;173.13;;;35.97;;
846;SDS011;410;48.954;9.474;2023-05-16T05:54:44;188.07;;;35.40;;
846;SDS011;410;48.954;9.474;2023-05-16T05:56:47;165.33;;;39.53;;
846;SDS011;410;48.954;9.474;2023-05-16T05:58:51;175.53;;;37.77;;
846;SDS011;410;48.954;9.474;2023-05-16T06:00:54;190.47;;;39.80;;
846;SDS011;410;48.954;9.474;2023-05-16T06:02:57;135.20;;;33.43;;
846;SDS011;410;48.954;9.474;2023-05-16T06:05:00;188.60;;;35.20;;
846;SDS011;410;48.954;9.474;2023-05-16T06:07:04;147.80;;;36.17;;
846;SDS011;410;48.954;9.474;2023-05-16T06:09:09;193.87;;;38.50;;
846;SDS011;410;48.954;9.474;2023-05-16T06:11:13;173.97;;;35.40;;
846;SDS011;410;48.954;9.474;2023-05-16T06:13:16;234.03;;;40.33;;
846;SDS011;410;48.954;9.474;2023-05-16T06:15:19;182.47;;;42.50;;
846;SDS011;410;48.954;9.474;2023-05-16T06:17:22;161.53;;;35.37;;
846;SDS011;410;48.954;9.474;2023-05-16T06:19:25;213.20;;;44.13;;
846;SDS011;410;48.954;9.474;2023-05-16T06:21:29;162.93;;;35.93;;
846;SDS011;410;48.954;9.474;2023-05-16T06:23:34;244.77;;;42.60;;
846;SDS011;410;48.954;9.474;2023-05-16T06:25:39;274.80;;;41.80;;
846;SDS011;410;48.954;9.474;2023-05-16T06:27:42;319.07;;;38.93;;
846;SDS011;410;48.954;9.474;2023-05-16T06:29:45;342.03;;;48.07;;
846;SDS011;410;48.954;9.474;2023-05-16T06:31:49;362.83;;;45.23;;
846;SDS011;410;48.954;9.474;2023-05-16T06:33:53;300.73;;;41.83;;
846;SDS011;410;48.954;9.474;2023-05-16T06:35:57;458.23;;;45.77;;
846;SDS011;410;48.954;9.474;2023-05-16T06:38:00;379.37;;;42.40;;
846;SDS011;410;48.954;9.474;2023-05-16T06:40:03;360.03;;;39.73;;
846;SDS011;410;48.954;9.474;2023-05-16T06:42:11;423.63;;;49.83;;
846;SDS011;410;48.954;9.474;2023-05-16T06:44:16;433.37;;;45.40;;
846;SDS011;410;48.954;9.474;2023-05-16T06:46:19;434.00;;;51.70;;
846;SDS011;410;48.954;9.474;2023-05-16T06:48:22;376.50;;;42.37;;
846;SDS011;410;48.954;9.474;2023-05-16T06:50:27;372.83;;;43.20;;
846;SDS011;410;48.954;9.474;2023-05-16T06:52:30;358.73;;;38.53;;
846;SDS011;410;48.954;9.474;2023-05-16T06:54:33;385.33;;;40.93;;
846;SDS011;410;48.954;9.474;2023-05-16T06:56:37;463.80;;;41.50;;
846;SDS011;410;48.954;9.474;2023-05-16T06:58:41;472.00;;;39.23;;
846;SDS011;410;48.954;9.474;2023-05-16T07:00:44;418.90;;;49.13;;
846;SDS011;410;48.954;9.474;2023-05-16T07:02:48;403.43;;;40.43;;
846;SDS011;410;48.954;9.474;2023-05-16T07:04:51;465.73;;;43.23;;
846;SDS011;410;48.954;9.474;2023-05-16T07:06:54;422.17;;;48.97;;
846;SDS011;410;48.954;9.474;2023-05-16T07:08:57;395.50;;;43.77;;
846;SDS011;410;48.954;9.474;2023-05-16T07:11:01;1009.17;;;46.00;;
846;SDS011;410;48.954;9.474;2023-05-16T07:13:04;447.77;;;42.07;;
846;SDS011;410;48.954;9.474;2023-05-16T07:15:09;548.30;;;43.37;;
846;SDS011;410;48.954;9.474;2023-05-16T07:17:16;547.43;;;57.07;;
846;SDS011;410;48.954;9.474;2023-05-16T07:19:19;556.53;;;47.07;;
846;SDS011;410;48.954;9.474;2023-05-16T07:21:22;615.33;;;36.00;;
846;SDS011;410;48.954;9.474;2023-05-16T07:23:26;332.63;;;25.47;;
846;SDS011;410;48.954;9.474;2023-05-16T07:25:29;385.97;;;44.97;;
846;SDS011;410;48.954;9.474;2023-05-16T07:27:32;462.87;;;51.43;;
846;SDS011;410;48.954;9.474;2023-05-16T07:29:35;748.30;;;58.93;;
846;SDS011;410;48.954;9.474;2023-05-16T07:31:40;401.17;;;47.03;;
846;SDS011;410;48.954;9.474;2023-05-16T07:33:43;396.47;;;43.87;;
846;SDS011;410;48.954;9.474;2023-05-16T07:35:47;403.47;;;43.87;;
846;SDS011;410;48.954;9.474;2023-05-16T07:37:51;449.70;;;47.60;;
846;SDS011;410;48.954;9.474;2023-05-16T07:39:55;495.87;;;50.17;;
846;SDS011;410;48.954;9.474;2023-05-16T07:41:58;583.63;;;41.10;;
846;SDS011;410;48.954;9.474;2023-05-16T07:44:01;351.57;;;39.77;;
846;SDS011;410;48.954;9.474;2023-05-16T07:46:04;442.63;;;44.10;;
846;SDS011;410;48.954;9.474;2023-05-16T07:48:09;455.97;;;41.50;;
846;SDS011;410;48.954;9.474;2023-05-16T07:50:12;384.00;;;42.90;;
846;SDS011;410;48.954;9.474;2023-05-16T07:52:15;371.37;;;42.57;;
846;SDS011;410;48.954;9.474;2023-05-16T07:54:18;404.07;;;40.73;;
846;SDS011;410;48.954;9.474;2023-05-16T07:56:22;369.57;;;41.87;;
846;SDS011;410;48.954;9.474;2023-05-16T07:58:25;506.27;;;43.17;;
846;SDS011;410;48.954;9.474;2023-05-16T08:00:28;412.13;;;40.40;;
846;SDS011;410;48.954;9.474;2023-05-16T08:02:31;402.63;;;37.77;;
846;SDS011;410;48.954;9.474;2023-05-16T08:04:36;427.70;;;42.60;;
846;SDS011;410;48.954;9.474;2023-05-16T08:06:39;427.63;;;44.93;;
846;SDS011;410;48.954;9.474;2023-05-16T08:08:42;286.57;;;18.90;;
846;SDS011;410;48.954;9.474;2023-05-16T08:10:45;391.27;;;42.33;;
846;SDS011;410;48.954;9.474;2023-05-16T08:12:51;354.70;;;39.53;;
846;SDS011;410;48.954;9.474;2023-05-16T08:14:55;435.60;;;41.97;;
846;SDS011;410;48.954;9.474;2023-05-16T08:16:58;477.20;;;41.07;;
846;SDS011;410;48.954;9.474;2023-05-16T08:19:02;537.27;;;39.93;;
846;SDS011;410;48.954;9.474;2023-05-16T08:21:07;381.13;;;40.97;;
846;SDS011;410;48.954;9.474;2023-05-16T08:23:10;421.23;;;46.40;;
846;SDS011;410;48.954;9.474;2023-05-16T08:25:13;318.80;;;44.93;;
846;SDS011;410;48.954;9.474;2023-05-16T08:27:16;473.83;;;43.83;;
846;SDS011;410;48.954;9.474;2023-05-16T08:29:20;434.50;;;42.30;;
846;SDS011;410;48.954;9.474;2023-05-16T08:31:23;436.73;;;42.20;;
846;SDS011;410;48.954;9.474;2023-05-16T08:33:26;224.57;;;24.33;;
846;SDS011;410;48.954;9.474;2023-05-16T08:35:29;490.03;;;57.60;;
846;SDS011;410;48.954;9.474;2023-05-16T08:37:34;523.93;;;47.17;;
846;SDS011;410;48.954;9.474;2023-05-16T08:39:38;389.37;;;50.57;;
846;SDS011;410;48.954;9.474;2023-05-16T08:41:41;568.57;;;64.70;;
846;SDS011;410;48.954;9.474;2023-05-16T08:43:45;323.20;;;24.30;;
846;SDS011;410;48.954;9.474;2023-05-16T08:45:48;463.97;;;50.67;;
846;SDS011;410;48.954;9.474;2023-05-16T08:47:53;492.37;;;57.83;;
846;SDS011;410;48.954;9.474;2023-05-16T08:49:57;497.73;;;48.07;;
846;SDS011;410;48.954;9.474;2023-05-16T08:52:00;430.10;;;42.50;;
846;SDS011;410;48.954;9.474;2023-05-16T08:54:06;651.67;;;61.83;;
846;SDS011;410;48.954;9.474;2023-05-16T08:56:13;454.07;;;48.03;;
846;SDS011;410;48.954;9.474;2023-05-16T08:58:19;682.63;;;59.63;;
846;SDS011;410;48.954;9.474;2023-05-16T09:00:22;528.53;;;57.83;;
846;SDS011;410;48.954;9.474;2023-05-16T09:02:26;431.93;;;45.33;;
846;SDS011;410;48.954;9.474;2023-05-16T09:04:29;559.13;;;53.60;;
846;SDS011;410;48.954;9.474;2023-05-16T09:06:33;484.70;;;49.40;;
846;SDS011;410;48.954;9.474;2023-05-16T09:08:36;447.17;;;44.23;;
846;SDS011;410;48.954;9.474;2023-05-16T09:10:41;388.90;;;53.30;;
846;SDS011;410;48.954;9.474;2023-05-16T09:12:44;457.17;;;49.10;;
846;SDS011;410;48.954;9.474;2023-05-16T09:14:48;382.73;;;47.13;;
846;SDS011;410;48.954;9.474;2023-05-16T09:17:02;472.13;;;48.30;;
846;SDS011;410;48.954;9.474;2023-05-16T09:19:06;447.03;;;44.27;;
846;SDS011;410;48.954;9.474;2023-05-16T09:21:10;380.53;;;50.07;;
846;SDS011;410;48.954;9.474;2023-05-16T09:23:14;442.83;;;46.10;;
846;SDS011;410;48.954;9.474;2023-05-16T09:25:18;384.87;;;40.77;;
846;SDS011;410;48.954;9.474;2023-05-16T09:27:33;386.70;;;41.37;;
846;SDS011;410;48.954;9.474;2023-05-16T09:29:36;393.80;;;47.47;;
846;SDS011;410;48.954;9.474;2023-05-16T09:31:42;369.00;;;45.87;;
846;SDS011;410;48.954;9.474;2023-05-16T09:33:45;377.57;;;43.70;;
846;SDS011;410;48.954;9.474;2023-05-16T09:35:53;385.80;;;49.93;;
846;SDS011;410;48.954;9.474;2023-05-16T09:37:57;785.17;;;27.50;;
846;SDS011;410;48.954;9.474;2023-05-16T09:40:00;464.63;;;47.97;;
846;SDS011;410;48.954;9.474;2023-05-16T09:42:06;388.87;;;49.97;;
846;SDS011;410;48.954;9.474;2023-05-16T09:44:14;409.30;;;50.13;;
846;SDS011;410;48.954;9.474;2023-05-16T09:46:20;427.60;;;49.30;;
846;SDS011;410;48.954;9.474;2023-05-16T09:48:27;501.77;;;48.37;;
846;SDS011;410;48.954;9.474;2023-05-16T09:50:31;522.57;;;51.90;;
846;SDS011;410;48.954;9.474;2023-05-16T09:52:36;547.93;;;52.27;;
846;SDS011;410;48.954;9.474;2023-05-16T09:54:39;449.13;;;46.07;;
846;SDS011;410;48.954;9.474;2023-05-16T09:56:48;425.87;;;48.63;;
846;SDS011;410;48.954;9.474;2023-05-16T09:58:53;708.90;;;50.73;;
846;SDS011;410;48.954;9.474;2023-05-16T10:00:57;628.70;;;54.70;;
846;SDS011;410;48.954;9.474;2023-05-16T10:03:01;555.13;;;51.97;;
846;SDS011;410;48.954;9.474;2023-05-16T10:05:07;513.17;;;50.27;;
846;SDS011;410;48.954;9.474;2023-05-16T10:07:10;485.00;;;52.27;;
846;SDS011;410;48.954;9.474;2023-05-16T10:09:14;409.67;;;50.27;;
846;SDS011;410;48.954;9.474;2023-05-16T10:11:18;378.70;;;41.30;;
846;SDS011;410;48.954;9.474;2023-05-16T10:13:23;457.23;;;44.00;;
846;SDS011;410;48.954;9.474;2023-05-16T10:15:26;445.33;;;38.10;;
846;SDS011;410;48.954;9.474;2023-05-16T10:17:32;406.50;;;49.57;;
846;SDS011;410;48.954;9.474;2023-05-16T10:19:37;374.77;;;49.10;;
846;SDS011;410;48.954;9.474;2023-05-16T10:21:41;374.10;;;53.67;;
846;SDS011;410;48.954;9.474;2023-05-16T10:23:49;381.70;;;44.50;;
846;SDS011;410;48.954;9.474;2023-05-16T10:25:52;382.87;;;39.27;;
846;SDS011;410;48.954;9.474;2023-05-16T10:27:56;410.20;;;41.53;;
846;SDS011;410;48.954;9.474;2023-05-16T10:29:59;375.57;;;46.13;;
846;SDS011;410;48.954;9.474;2023-05-16T10:32:04;385.60;;;42.03;;
846;SDS011;410;48.954;9.474;2023-05-16T10:34:09;537.10;;;55.03;;
846;SDS011;410;48.954;9.474;2023-05-16T10:36:13;398.13;;;42.73;;
846;SDS011;410;48.954;9.474;2023-05-16T10:38:17;367.60;;;42.20;;
846;SDS011;410;48.954;9.474;2023-05-16T10:40:20;366.03;;;42.77;;
846;SDS011;410;48.954;9.474;2023-05-16T10:42:24;423.00;;;44.70;;
846;SDS011;410;48.954;9.474;2023-05-16T10:44:27;394.83;;;41.17;;
846;SDS011;410;48.954;9.474;2023-05-16T10:46:34;414.50;;;41.63;;
846;SDS011;410;48.954;9.474;2023-05-16T10:48:40;365.57;;;40.70;;
846;SDS011;410;48.954;9.474;2023-05-16T10:50:46;473.90;;;39.13;;
846;SDS011;410;48.954;9.474;2023-05-16T10:52:51;390.37;;;42.83;;
846;SDS011;410;48.954;9.474;2023-05-16T10:54:54;388.13;;;41.47;;
846;SDS011;410;48.954;9.474;2023-05-16T10:56:58;354.70;;;38.77;;
846;SDS011;410;48.954;9.474;2023-05-16T10:59:21;466.63;;;46.20;;
846;SDS011;410;48.954;9.474;2023-05-16T11:01:26;371.20;;;41.63;;
846;SDS011;410;48.954;9.474;2023-05-16T11:03:30;377.73;;;41.60;;
846;SDS011;410;48.954;9.474;2023-05-16T11:05:34;405.63;;;44.10;;
846;SDS011;410;48.954;9.474;2023-05-16T11:07:38;361.27;;;38.50;;
846;SDS011;410;48.954;9.474;2023-05-16T11:09:42;365.17;;;33.83;;
846;SDS011;410;48.954;9.474;2023-05-16T11:11:50;379.10;;;42.37;;
846;SDS011;410;48.954;9.474;2023-05-16T11:13:56;704.50;;;44.87;;
846;SDS011;410;48.954;9.474;2023-05-16T11:18:30;394.20;;;45.23;;
846;SDS011;410;48.954;9.474;2023-05-16T11:20:35;628.93;;;61.80;;
846;SDS011;410;48.954;9.474;2023-05-16T11:22:41;373.77;;;52.37;;
846;SDS011;410;48.954;9.474;2023-05-16T11:24:50;701.23;;;57.10;;
846;SDS011;410;48.954;9.474;2023-05-16T11:26:58;493.53;;;50.70;;
846;SDS011;410;48.954;9.474;2023-05-16T11:29:01;385.93;;;44.03;;
846;SDS011;410;48.954;9.474;2023-05-16T11:31:08;435.50;;;53.47;;
846;SDS011;410;48.954;9.474;2023-05-16T11:33:11;497.37;;;46.63;;
846;SDS011;410;48.954;9.474;2023-05-16T11:35:15;516.13;;;52.97;;
846;SDS011;410;48.954;9.474;2023-05-16T11:37:19;451.93;;;39.10;;
846;SDS011;410;48.954;9.474;2023-05-16T11:39:24;395.80;;;36.40;;
846;SDS011;410;48.954;9.474;2023-05-16T11:41:28;362.03;;;39.50;;
846;SDS011;410;48.954;9.474;2023-05-16T11:43:38;326.57;;;41.33;;
846;SDS011;410;48.954;9.474;2023-05-16T11:45:42;338.20;;;45.40;;
846;SDS011;410;48.954;9.474;2023-05-16T11:47:46;348.20;;;35.13;;
846;SDS011;410;48.954;9.474;2023-05-16T11:49:55;398.73;;;42.53;;
846;SDS011;410;48.954;9.474;2023-05-16T11:51:59;325.33;;;43.27;;
846;SDS011;410;48.954;9.474;2023-05-16T11:54:02;379.17;;;45.93;;
846;SDS011;410;48.954;9.474;2023-05-16T11:56:08;320.50;;;36.00;;
846;SDS011;410;48.954;9.474;2023-05-16T11:58:11;219.80;;;39.57;;
846;SDS011;410;48.954;9.474;2023-05-16T12:00:15;288.83;;;47.07;;
846;SDS011;410;48.954;9.474;2023-05-16T12:02:20;252.00;;;39.67;;
846;SDS011;410;48.954;9.474;2023-05-16T12:04:24;229.30;;;41.03;;
846;SDS011;410;48.954;9.474;2023-05-16T12:06:27;257.03;;;43.00;;
846;SDS011;410;48.954;9.474;2023-05-16T12:08:32;233.10;;;43.57;;
846;SDS011;410;48.954;9.474;2023-05-16T12:10:35;221.03;;;47.73;;
846;SDS011;410;48.954;9.474;2023-05-16T12:12:40;240.20;;;40.20;;
846;SDS011;410;48.954;9.474;2023-05-16T12:14:44;248.93;;;44.13;;
846;SDS011;410;48.954;9.474;2023-05-16T12:16:47;222.33;;;40.23;;
846;SDS011;410;48.954;9.474;2023-05-16T12:18:51;218.83;;;44.47;;
846;SDS011;410;48.954;9.474;2023-05-16T12:20:54;206.97;;;39.87;;
846;SDS011;410;48.954;9.474;2023-05-16T12:22:57;213.33;;;38.77;;
846;SDS011;410;48.954;9.474;2023-05-16T12:27:26;303.20;;;46.30;;
846;SDS011;410;48.954;9.474;2023-05-16T12:29:33;363.67;;;41.03;;
846;SDS011;410;48.954;9.474;2023-05-16T12:31:37;342.87;;;42.90;;
846;SDS011;410;48.954;9.474;2023-05-16T12:33:42;411.00;;;54.27;;
846;SDS011;410;48.954;9.474;2023-05-16T12:35:47;422.83;;;44.70;;
846;SDS011;410;48.954;9.474;2023-05-16T12:37:52;402.47;;;53.63;;
846;SDS011;410;48.954;9.474;2023-05-16T12:39:58;357.50;;;43.77;;
846;SDS011;410;48.954;9.474;2023-05-16T12:42:03;463.63;;;50.03;;
846;SDS011;410;48.954;9.474;2023-05-16T12:44:11;337.27;;;47.07;;